KLM96C LHBP-EHAM
Flight info
| Callsign | KLM96C |
|---|---|
| Flight time | N/A |
| Altitude | 36000 |
| Route | GILEP DCT ZOLKU DCT BEGLA DCT DITIS DCT VARIK DCT KATCE DCT NORKU |
| Aircraft | B738/M-SDE2E3FGHIRWXY/LB1 |
Departure
| Time | 2026-05-05 12:00 |
|---|---|
| Airport | Budapest Liszt Ferenc International Airport (LHBP) |
Arrival
| Time | N/A |
|---|---|
| Airport | Amsterdam Airport Schiphol (EHAM) |
| Time | Latitude | Longitude | Altitude | Speed | Heading |
|---|---|---|---|---|---|
| 2026-05-05 11:29 | 47.43296 | 19.25701 | 480 ft | 0 kts | 39° |
| 2026-05-05 11:49 | 47.43284 | 19.25687 | 480 ft | 3 kts | 39° |
| 2026-05-05 11:49 | 47.43269 | 19.25668 | 476 ft | 3 kts | 37° |
| 2026-05-05 11:50 | 47.43252 | 19.25651 | 478 ft | 3 kts | 26° |
| 2026-05-05 11:50 | 47.43233 | 19.25641 | 478 ft | 3 kts | 5° |
| 2026-05-05 11:50 | 47.43215 | 19.25643 | 481 ft | 3 kts | 325° |
| 2026-05-05 11:50 | 47.43209 | 19.25649 | 476 ft | 0 kts | 311° |
| 2026-05-05 11:54 | 47.43216 | 19.25637 | 482 ft | 3 kts | 311° |
| 2026-05-05 11:54 | 47.43233 | 19.25610 | 481 ft | 5 kts | 311° |
| 2026-05-05 11:54 | 47.43260 | 19.25566 | 485 ft | 7 kts | 311° |
| 2026-05-05 11:54 | 47.43296 | 19.25506 | 475 ft | 9 kts | 311° |
| 2026-05-05 11:55 | 47.43340 | 19.25435 | 483 ft | 10 kts | 313° |
| 2026-05-05 11:55 | 47.43390 | 19.25354 | 487 ft | 12 kts | 313° |
| 2026-05-05 11:55 | 47.43470 | 19.25344 | 483 ft | 14 kts | 36° |
| 2026-05-05 11:55 | 47.43546 | 19.25444 | 480 ft | 15 kts | 42° |
| 2026-05-05 11:56 | 47.43625 | 19.25550 | 482 ft | 16 kts | 42° |
| 2026-05-05 11:56 | 47.43705 | 19.25658 | 482 ft | 16 kts | 42° |
| 2026-05-05 11:56 | 47.43790 | 19.25773 | 480 ft | 18 kts | 43° |
| 2026-05-05 11:56 | 47.43886 | 19.25900 | 490 ft | 19 kts | 42° |
| 2026-05-05 11:57 | 47.43971 | 19.26010 | 490 ft | 15 kts | 31° |
| 2026-05-05 11:57 | 47.44062 | 19.25970 | 492 ft | 15 kts | 314° |
| 2026-05-05 11:57 | 47.44141 | 19.25844 | 486 ft | 19 kts | 312° |
| 2026-05-05 11:57 | 47.44229 | 19.25702 | 487 ft | 18 kts | 312° |
| 2026-05-05 11:58 | 47.44316 | 19.25579 | 487 ft | 18 kts | 328° |
| 2026-05-05 11:58 | 47.44419 | 19.25566 | 486 ft | 14 kts | 16° |
| 2026-05-05 11:58 | 47.44475 | 19.25624 | 489 ft | 9 kts | 49° |
| 2026-05-05 11:58 | 47.44504 | 19.25728 | 489 ft | 14 kts | 81° |
| 2026-05-05 11:59 | 47.44488 | 19.25844 | 487 ft | 11 kts | 124° |
| 2026-05-05 11:59 | 47.44472 | 19.25872 | 484 ft | 0 kts | 131° |
| 2026-05-05 11:59 | 47.44440 | 19.25924 | 484 ft | 21 kts | 133° |
| 2026-05-05 11:59 | 47.44220 | 19.26275 | 489 ft | 74 kts | 133° |
| 2026-05-05 12:00 | 47.43752 | 19.27032 | 483 ft | 124 kts | 133° |
| 2026-05-05 12:00 | 47.43067 | 19.28130 | 509 ft | 162 kts | 133° |
| 2026-05-05 12:00 | 47.42308 | 19.29352 | 1014 ft | 162 kts | 133° |
| 2026-05-05 12:00 | 47.41643 | 19.30759 | 1431 ft | 176 kts | 121° |
| 2026-05-05 12:01 | 47.41063 | 19.32454 | 1815 ft | 193 kts | 116° |
| 2026-05-05 12:01 | 47.40491 | 19.34297 | 2344 ft | 201 kts | 118° |
| 2026-05-05 12:01 | 47.39817 | 19.36145 | 3007 ft | 210 kts | 121° |
| 2026-05-05 12:01 | 47.39033 | 19.38093 | 3458 ft | 233 kts | 122° |
| 2026-05-05 12:02 | 47.38442 | 19.39485 | 3805 ft | 247 kts | 128° |
| 2026-05-05 12:02 | 47.37122 | 19.41186 | 4508 ft | 258 kts | 156° |
| 2026-05-05 12:02 | 47.35358 | 19.41637 | 5392 ft | 263 kts | 187° |
| 2026-05-05 12:02 | 47.33658 | 19.40675 | 6321 ft | 266 kts | 217° |
| 2026-05-05 12:03 | 47.32505 | 19.38550 | 7237 ft | 272 kts | 246° |
| 2026-05-05 12:03 | 47.32190 | 19.35786 | 8130 ft | 278 kts | 269° |
| 2026-05-05 12:03 | 47.32022 | 19.32932 | 8942 ft | 281 kts | 252° |
| 2026-05-05 12:03 | 47.31201 | 19.30320 | 9807 ft | 283 kts | 236° |
| 2026-05-05 12:04 | 47.30035 | 19.27932 | 10491 ft | 294 kts | 232° |
| 2026-05-05 12:04 | 47.28777 | 19.25440 | 10963 ft | 312 kts | 234° |
| 2026-05-05 12:04 | 47.27549 | 19.22693 | 11427 ft | 329 kts | 237° |
| 2026-05-05 12:04 | 47.26355 | 19.19708 | 11889 ft | 345 kts | 239° |
| 2026-05-05 12:05 | 47.25160 | 19.16604 | 12601 ft | 352 kts | 239° |
| 2026-05-05 12:05 | 47.23918 | 19.13463 | 13379 ft | 356 kts | 238° |
| 2026-05-05 12:05 | 47.22633 | 19.10321 | 14171 ft | 361 kts | 238° |
| 2026-05-05 12:05 | 47.21371 | 19.07112 | 14951 ft | 366 kts | 245° |
| 2026-05-05 12:06 | 47.20691 | 19.03499 | 15752 ft | 372 kts | 263° |
| 2026-05-05 12:06 | 47.20864 | 18.99691 | 16523 ft | 378 kts | 283° |
| 2026-05-05 12:06 | 47.21950 | 18.96148 | 17267 ft | 385 kts | 303° |
| 2026-05-05 12:06 | 47.23539 | 18.93008 | 17958 ft | 390 kts | 307° |
| 2026-05-05 12:07 | 47.25263 | 18.89837 | 18664 ft | 394 kts | 308° |
| 2026-05-05 12:07 | 47.26984 | 18.86732 | 19332 ft | 398 kts | 308° |
| 2026-05-05 12:07 | 47.28722 | 18.83532 | 19999 ft | 402 kts | 307° |
| 2026-05-05 12:07 | 47.30448 | 18.80270 | 20636 ft | 405 kts | 307° |
| 2026-05-05 12:08 | 47.32173 | 18.76972 | 21247 ft | 409 kts | 307° |
| 2026-05-05 12:08 | 47.33920 | 18.73644 | 21832 ft | 412 kts | 307° |
| 2026-05-05 12:08 | 47.35690 | 18.70297 | 22402 ft | 416 kts | 307° |
| 2026-05-05 12:08 | 47.37479 | 18.66927 | 22955 ft | 419 kts | 307° |
| 2026-05-05 12:09 | 47.39279 | 18.63528 | 23484 ft | 422 kts | 307° |
| 2026-05-05 12:09 | 47.40978 | 18.59970 | 23989 ft | 424 kts | 299° |
| 2026-05-05 12:09 | 47.42206 | 18.55990 | 24502 ft | 427 kts | 288° |
| 2026-05-05 12:09 | 47.43102 | 18.51803 | 24961 ft | 429 kts | 286° |
| 2026-05-05 12:10 | 47.43967 | 18.47561 | 25425 ft | 432 kts | 286° |
| 2026-05-05 12:10 | 47.44818 | 18.43293 | 25876 ft | 434 kts | 285° |
| 2026-05-05 12:10 | 47.45676 | 18.39002 | 26298 ft | 436 kts | 286° |
| 2026-05-05 12:10 | 47.46549 | 18.34688 | 26710 ft | 439 kts | 286° |
| 2026-05-05 12:11 | 47.47430 | 18.30360 | 27112 ft | 441 kts | 286° |
| 2026-05-05 12:11 | 47.48315 | 18.26006 | 27494 ft | 443 kts | 286° |
| 2026-05-05 12:11 | 47.49133 | 18.21668 | 27849 ft | 445 kts | 284° |
| 2026-05-05 12:11 | 47.49856 | 18.17211 | 28198 ft | 446 kts | 282° |
| 2026-05-05 12:12 | 47.50530 | 18.12720 | 28535 ft | 448 kts | 282° |
| 2026-05-05 12:12 | 47.51225 | 18.08215 | 28858 ft | 450 kts | 283° |
| 2026-05-05 12:12 | 47.51966 | 18.03700 | 29180 ft | 452 kts | 283° |
| 2026-05-05 12:12 | 47.52732 | 17.99183 | 29496 ft | 454 kts | 283° |
| 2026-05-05 12:13 | 47.53495 | 17.94640 | 29794 ft | 455 kts | 283° |
| 2026-05-05 12:13 | 47.54235 | 17.90104 | 30294 ft | 451 kts | 283° |
| 2026-05-05 12:13 | 47.54958 | 17.85585 | 30725 ft | 450 kts | 283° |
| 2026-05-05 12:13 | 47.55855 | 17.81163 | 31121 ft | 449 kts | 291° |
| 2026-05-05 12:14 | 47.57241 | 17.77029 | 31516 ft | 448 kts | 299° |
| 2026-05-05 12:14 | 47.58807 | 17.73039 | 31869 ft | 448 kts | 300° |
| 2026-05-05 12:14 | 47.60374 | 17.69120 | 32227 ft | 447 kts | 300° |
| 2026-05-05 12:14 | 47.61967 | 17.65159 | 32583 ft | 446 kts | 300° |
| 2026-05-05 12:15 | 47.63547 | 17.61206 | 32937 ft | 446 kts | 300° |
| 2026-05-05 12:15 | 47.65119 | 17.57237 | 33287 ft | 445 kts | 299° |
| 2026-05-05 12:15 | 47.66677 | 17.53279 | 33624 ft | 444 kts | 299° |
| 2026-05-05 12:15 | 47.68234 | 17.49325 | 33964 ft | 443 kts | 299° |
| 2026-05-05 12:16 | 47.69788 | 17.45383 | 34288 ft | 442 kts | 299° |
| 2026-05-05 12:16 | 47.71341 | 17.41449 | 34607 ft | 441 kts | 299° |
| 2026-05-05 12:16 | 47.72876 | 17.37552 | 34909 ft | 441 kts | 299° |
| 2026-05-05 12:16 | 47.74426 | 17.33608 | 35205 ft | 440 kts | 299° |
| 2026-05-05 12:17 | 47.75966 | 17.29679 | 35490 ft | 440 kts | 299° |
| 2026-05-05 12:17 | 47.77501 | 17.25754 | 35784 ft | 439 kts | 299° |
| 2026-05-05 12:17 | 47.80594 | 17.17835 | 35901 ft | 447 kts | 299° |
| 2026-05-05 12:18 | 47.83922 | 17.09977 | 35890 ft | 449 kts | 308° |
| 2026-05-05 12:18 | 47.87860 | 17.02789 | 35872 ft | 446 kts | 308° |
| 2026-05-05 12:19 | 47.91804 | 16.95673 | 35875 ft | 444 kts | 308° |
| 2026-05-05 12:19 | 47.95706 | 16.88586 | 35860 ft | 445 kts | 308° |
| 2026-05-05 12:20 | 47.99630 | 16.81422 | 35863 ft | 445 kts | 308° |
| 2026-05-05 12:20 | 48.03545 | 16.74274 | 35854 ft | 445 kts | 308° |
| 2026-05-05 12:21 | 48.07468 | 16.67087 | 35845 ft | 446 kts | 308° |
| 2026-05-05 12:21 | 48.11375 | 16.59909 | 35853 ft | 445 kts | 308° |
| 2026-05-05 12:22 | 48.15285 | 16.52712 | 35852 ft | 446 kts | 308° |
| 2026-05-05 12:22 | 48.19188 | 16.45501 | 35845 ft | 445 kts | 308° |
| 2026-05-05 12:23 | 48.23083 | 16.38289 | 35860 ft | 444 kts | 308° |
| 2026-05-05 12:23 | 48.26969 | 16.31073 | 35855 ft | 444 kts | 308° |
| 2026-05-05 12:24 | 48.30853 | 16.23845 | 35849 ft | 444 kts | 308° |
| 2026-05-05 12:24 | 48.34701 | 16.16661 | 35851 ft | 444 kts | 308° |
| 2026-05-05 12:25 | 48.38573 | 16.09416 | 35859 ft | 444 kts | 308° |
| 2026-05-05 12:25 | 48.42441 | 16.02155 | 35852 ft | 444 kts | 308° |
| 2026-05-05 12:26 | 48.46307 | 15.94880 | 35862 ft | 444 kts | 307° |
| 2026-05-05 12:26 | 48.50167 | 15.87597 | 35859 ft | 444 kts | 307° |
| 2026-05-05 12:27 | 48.54028 | 15.80292 | 35852 ft | 444 kts | 307° |
| 2026-05-05 12:27 | 48.57844 | 15.73053 | 35871 ft | 444 kts | 307° |
| 2026-05-05 12:28 | 48.61687 | 15.65743 | 35865 ft | 444 kts | 307° |
| 2026-05-05 12:28 | 48.65522 | 15.58426 | 35861 ft | 443 kts | 307° |
| 2026-05-05 12:29 | 48.69356 | 15.51093 | 35854 ft | 444 kts | 307° |
| 2026-05-05 12:29 | 48.73160 | 15.43800 | 35860 ft | 443 kts | 307° |
| 2026-05-05 12:30 | 48.76975 | 15.36459 | 35853 ft | 443 kts | 307° |
| 2026-05-05 12:30 | 48.80788 | 15.29108 | 35860 ft | 444 kts | 307° |
| 2026-05-05 12:31 | 48.84602 | 15.21732 | 35850 ft | 443 kts | 307° |
| 2026-05-05 12:31 | 48.88396 | 15.14370 | 35849 ft | 443 kts | 307° |
| 2026-05-05 12:32 | 48.92222 | 15.07026 | 35853 ft | 443 kts | 308° |
| 2026-05-05 12:32 | 48.96143 | 14.99797 | 35849 ft | 443 kts | 308° |
| 2026-05-05 12:33 | 49.00038 | 14.92507 | 35852 ft | 443 kts | 307° |
| 2026-05-05 12:33 | 49.03902 | 14.85193 | 35846 ft | 443 kts | 307° |
| 2026-05-05 12:34 | 49.07751 | 14.77946 | 35844 ft | 442 kts | 307° |
| 2026-05-05 12:34 | 49.11625 | 14.70625 | 35842 ft | 443 kts | 307° |
| 2026-05-05 12:35 | 49.15480 | 14.63302 | 35840 ft | 442 kts | 307° |
| 2026-05-05 12:35 | 49.19336 | 14.55967 | 35836 ft | 442 kts | 307° |
| 2026-05-05 12:36 | 49.23185 | 14.48627 | 35839 ft | 442 kts | 307° |
| 2026-05-05 12:36 | 49.27027 | 14.41276 | 35849 ft | 442 kts | 307° |
| 2026-05-05 12:37 | 49.30869 | 14.33906 | 35857 ft | 442 kts | 307° |
| 2026-05-05 12:37 | 49.34703 | 14.26535 | 35851 ft | 442 kts | 307° |
| 2026-05-05 12:38 | 49.38528 | 14.19154 | 35831 ft | 442 kts | 307° |
| 2026-05-05 12:38 | 49.42353 | 14.11754 | 35816 ft | 442 kts | 306° |
| 2026-05-05 12:39 | 49.46141 | 14.04407 | 35816 ft | 441 kts | 306° |
| 2026-05-05 12:39 | 49.49947 | 13.97006 | 35814 ft | 441 kts | 306° |
| 2026-05-05 12:40 | 49.53752 | 13.89580 | 35811 ft | 442 kts | 306° |
| 2026-05-05 12:40 | 49.57555 | 13.82142 | 35816 ft | 441 kts | 306° |
| 2026-05-05 12:41 | 49.61356 | 13.74687 | 35816 ft | 441 kts | 306° |
| 2026-05-05 12:41 | 49.65143 | 13.67239 | 35824 ft | 442 kts | 306° |
| 2026-05-05 12:42 | 49.68932 | 13.59763 | 35830 ft | 442 kts | 306° |
| 2026-05-05 12:42 | 49.72712 | 13.52285 | 35828 ft | 442 kts | 306° |
| 2026-05-05 12:43 | 49.76493 | 13.44784 | 35830 ft | 442 kts | 306° |
| 2026-05-05 12:43 | 49.80251 | 13.37308 | 35824 ft | 443 kts | 306° |
| 2026-05-05 12:44 | 49.84023 | 13.29783 | 35823 ft | 442 kts | 306° |
| 2026-05-05 12:44 | 49.87797 | 13.22230 | 35823 ft | 442 kts | 306° |
| 2026-05-05 12:45 | 49.91573 | 13.14655 | 35825 ft | 444 kts | 306° |
| 2026-05-05 12:45 | 49.95343 | 13.07067 | 35828 ft | 443 kts | 306° |
| 2026-05-05 12:46 | 49.99085 | 12.99512 | 35834 ft | 443 kts | 305° |
| 2026-05-05 12:46 | 50.02234 | 12.93141 | 35838 ft | 443 kts | 305° |
| 2026-05-05 12:47 | 50.05983 | 12.85537 | 35841 ft | 442 kts | 305° |
| 2026-05-05 12:47 | 50.09718 | 12.77936 | 35842 ft | 442 kts | 305° |
| 2026-05-05 12:48 | 50.13428 | 12.70362 | 35838 ft | 443 kts | 305° |
| 2026-05-05 12:48 | 50.17168 | 12.62712 | 35844 ft | 445 kts | 305° |
| 2026-05-05 12:49 | 50.20935 | 12.54978 | 35850 ft | 450 kts | 305° |
| 2026-05-05 12:49 | 50.24737 | 12.47151 | 35849 ft | 454 kts | 305° |
| 2026-05-05 12:50 | 50.28558 | 12.39260 | 35861 ft | 456 kts | 305° |
| 2026-05-05 12:50 | 50.32413 | 12.31349 | 35856 ft | 456 kts | 305° |
| 2026-05-05 12:51 | 50.36294 | 12.23475 | 35865 ft | 456 kts | 305° |
| 2026-05-05 12:51 | 50.40127 | 12.15613 | 35862 ft | 456 kts | 305° |
| 2026-05-05 12:52 | 50.43970 | 12.07696 | 35875 ft | 456 kts | 305° |
| 2026-05-05 12:52 | 50.47816 | 11.99775 | 35864 ft | 456 kts | 305° |
| 2026-05-05 12:53 | 50.51653 | 11.91840 | 35871 ft | 456 kts | 304° |
| 2026-05-05 12:53 | 50.55488 | 11.83882 | 35870 ft | 456 kts | 304° |
| 2026-05-05 12:54 | 50.61226 | 11.71935 | 35877 ft | 456 kts | 304° |
| 2026-05-05 12:55 | 50.65042 | 11.63958 | 35867 ft | 456 kts | 304° |
| 2026-05-05 12:55 | 50.68852 | 11.55969 | 35872 ft | 455 kts | 304° |
| 2026-05-05 12:56 | 50.72652 | 11.47979 | 35870 ft | 455 kts | 304° |
| 2026-05-05 12:56 | 50.76452 | 11.39960 | 35870 ft | 455 kts | 304° |
| 2026-05-05 12:57 | 50.80224 | 11.31979 | 35861 ft | 455 kts | 304° |
| 2026-05-05 12:57 | 50.84011 | 11.23943 | 35875 ft | 455 kts | 304° |
| 2026-05-05 12:58 | 50.87786 | 11.15903 | 35868 ft | 455 kts | 304° |
| 2026-05-05 12:58 | 50.91564 | 11.07835 | 35882 ft | 455 kts | 304° |
| 2026-05-05 12:59 | 50.95331 | 10.99766 | 35872 ft | 455 kts | 304° |
| 2026-05-05 12:59 | 50.99091 | 10.91683 | 35881 ft | 455 kts | 304° |
| 2026-05-05 13:00 | 51.04718 | 10.79545 | 35869 ft | 455 kts | 303° |
| 2026-05-05 13:01 | 51.12181 | 10.63357 | 35880 ft | 455 kts | 303° |
| 2026-05-05 13:01 | 51.15920 | 10.55213 | 35879 ft | 454 kts | 303° |
| 2026-05-05 13:02 | 51.19647 | 10.47062 | 35870 ft | 455 kts | 303° |
| 2026-05-05 13:02 | 51.23364 | 10.38904 | 35867 ft | 454 kts | 303° |
| 2026-05-05 13:03 | 51.26585 | 10.30296 | 35882 ft | 450 kts | 294° |
| 2026-05-05 13:03 | 51.29339 | 10.21307 | 35871 ft | 450 kts | 293° |
| 2026-05-05 13:04 | 51.32047 | 10.12344 | 35880 ft | 450 kts | 293° |
| 2026-05-05 13:04 | 51.34782 | 10.03344 | 35871 ft | 450 kts | 293° |
| 2026-05-05 13:05 | 51.37504 | 9.94335 | 35861 ft | 450 kts | 293° |
| 2026-05-05 13:05 | 51.40224 | 9.85283 | 35883 ft | 451 kts | 293° |
| 2026-05-05 13:06 | 51.42939 | 9.76224 | 35869 ft | 450 kts | 293° |
| 2026-05-05 13:06 | 51.45631 | 9.67211 | 35881 ft | 450 kts | 293° |
| 2026-05-05 13:07 | 51.48330 | 9.58137 | 35864 ft | 450 kts | 292° |
| 2026-05-05 13:07 | 51.51018 | 9.49067 | 35885 ft | 450 kts | 292° |
| 2026-05-05 13:08 | 51.53706 | 9.39960 | 35884 ft | 451 kts | 292° |
| 2026-05-05 13:08 | 51.56391 | 9.30832 | 35876 ft | 451 kts | 292° |
| 2026-05-05 13:09 | 51.59066 | 9.21700 | 35881 ft | 451 kts | 292° |
| 2026-05-05 13:09 | 51.61723 | 9.12596 | 35881 ft | 452 kts | 292° |
| 2026-05-05 13:10 | 51.64390 | 9.03425 | 35882 ft | 452 kts | 292° |
| 2026-05-05 13:10 | 51.67050 | 8.94235 | 35885 ft | 452 kts | 292° |
| 2026-05-05 13:11 | 51.69705 | 8.85033 | 35883 ft | 452 kts | 292° |
| 2026-05-05 13:11 | 51.72347 | 8.75841 | 35882 ft | 452 kts | 292° |
| 2026-05-05 13:12 | 51.74985 | 8.66625 | 35874 ft | 451 kts | 292° |
| 2026-05-05 13:12 | 51.77596 | 8.57469 | 35881 ft | 452 kts | 292° |
| 2026-05-05 13:13 | 51.80216 | 8.48242 | 35884 ft | 451 kts | 292° |
| 2026-05-05 13:13 | 51.81964 | 8.42068 | 35883 ft | 451 kts | 292° |